sensor_id;sensor_type;location;lat;lon;timestamp;pressure;altitude;pressure_sealevel;temperature;humidity
74230;BME280;62589;12.568;99.958;2022-09-03T00:00:36;100516.06;;;33.93;58.14
74230;BME280;62589;12.568;99.958;2022-09-03T00:03:19;100520.03;;;33.99;58.58
74230;BME280;62589;12.568;99.958;2022-09-03T00:05:55;100518.84;;;34.00;58.08
74230;BME280;62589;12.568;99.958;2022-09-03T00:08:32;100528.41;;;34.02;57.78
74230;BME280;62589;12.568;99.958;2022-09-03T00:14:03;100531.53;;;34.11;56.13
74230;BME280;62589;12.568;99.958;2022-09-03T00:16:42;100537.91;;;34.12;55.96
74230;BME280;62589;12.568;99.958;2022-09-03T00:19:10;100545.84;;;34.13;55.32
74230;BME280;62589;12.568;99.958;2022-09-03T00:21:47;100548.25;;;34.15;55.29
74230;BME280;62589;12.568;99.958;2022-09-03T00:24:17;100552.63;;;34.20;55.42
74230;BME280;62589;12.568;99.958;2022-09-03T00:26:49;100559.38;;;34.22;55.66
74230;BME280;62589;12.568;99.958;2022-09-03T00:29:24;100560.97;;;34.27;55.70
74230;BME280;62589;12.568;99.958;2022-09-03T00:31:56;100566.53;;;34.30;55.49
74230;BME280;62589;12.568;99.958;2022-09-03T00:34:46;100572.91;;;34.34;55.62
74230;BME280;62589;12.568;99.958;2022-09-03T00:37:12;100570.50;;;34.40;55.02
74230;BME280;62589;12.568;99.958;2022-09-03T00:39:39;100569.28;;;34.48;55.06
74230;BME280;62589;12.568;99.958;2022-09-03T00:45:38;100579.16;;;34.67;55.12
74230;BME280;62589;12.568;99.958;2022-09-03T00:48:22;100591.47;;;34.73;55.41
74230;BME280;62589;12.568;99.958;2022-09-03T00:54:19;100583.00;;;34.94;55.14
74230;BME280;62589;12.568;99.958;2022-09-03T00:57:04;100583.78;;;35.02;55.39
74230;BME280;62589;12.568;99.958;2022-09-03T00:59:50;100600.88;;;35.11;54.62
74230;BME280;62589;12.568;99.958;2022-09-03T01:02:56;100594.41;;;35.21;53.78
74230;BME280;62589;12.568;99.958;2022-09-03T01:05:42;100609.53;;;35.31;53.15
74230;BME280;62589;12.568;99.958;2022-09-03T01:11:25;100613.84;;;35.39;51.56
74230;BME280;62589;12.568;99.958;2022-09-03T01:17:07;100622.09;;;35.57;51.97
74230;BME280;62589;12.568;99.958;2022-09-03T01:23:09;100621.19;;;35.74;51.23
74230;BME280;62589;12.568;99.958;2022-09-03T01:25:58;100627.47;;;35.85;50.95
74230;BME280;62589;12.568;99.958;2022-09-03T01:29:08;100624.22;;;35.94;50.75
74230;BME280;62589;12.568;99.958;2022-09-03T01:34:44;100637.63;;;36.09;51.60
74230;BME280;62589;12.568;99.958;2022-09-03T01:40:41;100635.06;;;36.29;51.71
74230;BME280;62589;12.568;99.958;2022-09-03T01:46:16;100629.44;;;36.33;51.21
74230;BME280;62589;12.568;99.958;2022-09-03T01:49:01;100621.03;;;36.36;51.09
74230;BME280;62589;12.568;99.958;2022-09-03T01:51:31;100630.50;;;36.42;50.72
74230;BME280;62589;12.568;99.958;2022-09-03T01:59:58;100630.72;;;36.59;51.39
74230;BME280;62589;12.568;99.958;2022-09-03T02:02:27;100627.88;;;36.62;51.43
74230;BME280;62589;12.568;99.958;2022-09-03T02:05:02;100625.84;;;36.66;51.41
74230;BME280;62589;12.568;99.958;2022-09-03T02:07:35;100623.00;;;36.70;51.04
74230;BME280;62589;12.568;99.958;2022-09-03T02:10:06;100616.63;;;36.73;51.48
74230;BME280;62589;12.568;99.958;2022-09-03T02:12:34;100617.38;;;36.77;50.82
74230;BME280;62589;12.568;99.958;2022-09-03T02:15:06;100621.69;;;36.81;50.78
74230;BME280;62589;12.568;99.958;2022-09-03T02:17:34;100613.25;;;36.85;50.59
74230;BME280;62589;12.568;99.958;2022-09-03T02:20:07;100614.00;;;36.89;49.89
74230;BME280;62589;12.568;99.958;2022-09-03T02:22:38;100617.91;;;36.95;49.54
74230;BME280;62589;12.568;99.958;2022-09-03T02:25:05;100624.25;;;36.99;49.56
74230;BME280;62589;12.568;99.958;2022-09-03T02:27:32;100612.56;;;37.04;49.77
74230;BME280;62589;12.568;99.958;2022-09-03T02:29:59;100616.50;;;37.10;49.41
74230;BME280;62589;12.568;99.958;2022-09-03T02:32:26;100608.78;;;37.18;49.41
74230;BME280;62589;12.568;99.958;2022-09-03T02:34:53;100619.53;;;37.23;48.84
74230;BME280;62589;12.568;99.958;2022-09-03T02:37:19;100616.25;;;37.28;48.73
74230;BME280;62589;12.568;99.958;2022-09-03T02:39:46;100627.78;;;37.34;48.24
74230;BME280;62589;12.568;99.958;2022-09-03T02:42:13;100619.28;;;37.41;47.74
74230;BME280;62589;12.568;99.958;2022-09-03T02:44:43;100605.63;;;37.43;47.54
74230;BME280;62589;12.568;99.958;2022-09-03T02:47:13;100608.69;;;37.52;47.20
74230;BME280;62589;12.568;99.958;2022-09-03T02:49:39;100601.03;;;37.56;46.88
74230;BME280;62589;12.568;99.958;2022-09-03T02:52:08;100609.78;;;37.58;46.91
74230;BME280;62589;12.568;99.958;2022-09-03T02:54:38;100605.69;;;37.63;45.92
74230;BME280;62589;12.568;99.958;2022-09-03T02:57:06;100616.88;;;37.66;46.03
74230;BME280;62589;12.568;99.958;2022-09-03T02:59:33;100610.78;;;37.71;46.40
74230;BME280;62589;12.568;99.958;2022-09-03T03:01:59;100609.94;;;37.74;46.38
74230;BME280;62589;12.568;99.958;2022-09-03T03:04:26;100616.66;;;37.80;46.39
74230;BME280;62589;12.568;99.958;2022-09-03T03:06:52;100604.72;;;37.76;44.70
74230;BME280;62589;12.568;99.958;2022-09-03T03:09:19;100605.03;;;37.82;45.30
74230;BME280;62589;12.568;99.958;2022-09-03T03:11:45;100603.72;;;37.87;45.56
74230;BME280;62589;12.568;99.958;2022-09-03T03:14:11;100610.41;;;37.93;45.74
74230;BME280;62589;12.568;99.958;2022-09-03T03:16:37;100611.59;;;37.95;45.77
74230;BME280;62589;12.568;99.958;2022-09-03T03:19:04;100619.50;;;38.00;45.34
74230;BME280;62589;12.568;99.958;2022-09-03T03:21:30;100616.19;;;38.05;44.90
74230;BME280;62589;12.568;99.958;2022-09-03T03:23:57;100608.94;;;38.08;45.08
74230;BME280;62589;12.568;99.958;2022-09-03T03:26:23;100611.28;;;38.13;44.37
74230;BME280;62589;12.568;99.958;2022-09-03T03:28:55;100599.22;;;38.16;44.16
74230;BME280;62589;12.568;99.958;2022-09-03T03:31:22;100605.91;;;38.22;44.41
74230;BME280;62589;12.568;99.958;2022-09-03T03:33:54;100607.50;;;38.23;45.48
74230;BME280;62589;12.568;99.958;2022-09-03T03:36:22;100608.56;;;38.29;45.40
74230;BME280;62589;12.568;99.958;2022-09-03T03:38:51;100602.09;;;38.32;45.41
74230;BME280;62589;12.568;99.958;2022-09-03T03:41:20;100603.31;;;38.31;45.15
74230;BME280;62589;12.568;99.958;2022-09-03T03:43:50;100600.16;;;38.29;45.46
74230;BME280;62589;12.568;99.958;2022-09-03T03:46:18;100607.69;;;38.32;45.16
74230;BME280;62589;12.568;99.958;2022-09-03T03:48:47;100606.13;;;38.31;45.55
74230;BME280;62589;12.568;99.958;2022-09-03T03:51:13;100602.09;;;38.32;45.70
74230;BME280;62589;12.568;99.958;2022-09-03T03:53:40;100598.84;;;38.34;45.35
74230;BME280;62589;12.568;99.958;2022-09-03T03:56:09;100599.66;;;38.34;45.23
74230;BME280;62589;12.568;99.958;2022-09-03T03:58:36;100594.03;;;38.34;44.96
74230;BME280;62589;12.568;99.958;2022-09-03T04:01:12;100589.94;;;38.39;45.27
74230;BME280;62589;12.568;99.958;2022-09-03T04:03:40;100592.69;;;38.42;44.89
74230;BME280;62589;12.568;99.958;2022-09-03T04:06:07;100588.28;;;38.41;44.91
74230;BME280;62589;12.568;99.958;2022-09-03T04:08:36;100589.53;;;38.40;45.59
74230;BME280;62589;12.568;99.958;2022-09-03T04:11:06;100593.97;;;38.38;45.40
74230;BME280;62589;12.568;99.958;2022-09-03T04:13:35;100588.00;;;38.36;45.29
74230;BME280;62589;12.568;99.958;2022-09-03T04:16:12;100594.41;;;38.36;45.59
74230;BME280;62589;12.568;99.958;2022-09-03T04:18:39;100593.19;;;38.37;46.01
74230;BME280;62589;12.568;99.958;2022-09-03T04:21:08;100589.66;;;38.33;45.18
74230;BME280;62589;12.568;99.958;2022-09-03T04:23:37;100590.09;;;38.32;45.21
74230;BME280;62589;12.568;99.958;2022-09-03T04:26:05;100592.94;;;38.28;45.25
74230;BME280;62589;12.568;99.958;2022-09-03T04:28:32;100600.66;;;38.24;45.72
74230;BME280;62589;12.568;99.958;2022-09-03T04:31:02;100601.53;;;38.21;45.64
74230;BME280;62589;12.568;99.958;2022-09-03T04:33:30;100597.56;;;38.19;45.82
74230;BME280;62589;12.568;99.958;2022-09-03T04:36:16;100587.50;;;38.21;45.86
74230;BME280;62589;12.568;99.958;2022-09-03T04:38:45;100597.56;;;38.19;45.53
74230;BME280;62589;12.568;99.958;2022-09-03T04:41:15;100601.22;;;38.15;45.68
74230;BME280;62589;12.568;99.958;2022-09-03T04:43:43;100597.63;;;38.15;45.95
74230;BME280;62589;12.568;99.958;2022-09-03T04:46:11;100585.63;;;38.14;45.41
74230;BME280;62589;12.568;99.958;2022-09-03T04:48:39;100582.38;;;38.16;45.60
74230;BME280;62589;12.568;99.958;2022-09-03T04:51:08;100579.94;;;38.18;45.67
74230;BME280;62589;12.568;99.958;2022-09-03T04:53:39;100576.34;;;38.17;45.83
74230;BME280;62589;12.568;99.958;2022-09-03T04:56:18;100560.69;;;38.20;45.66
74230;BME280;62589;12.568;99.958;2022-09-03T04:58:46;100563.97;;;38.15;45.79
74230;BME280;62589;12.568;99.958;2022-09-03T05:01:20;100560.38;;;38.14;45.62
74230;BME280;62589;12.568;99.958;2022-09-03T05:03:48;100556.38;;;38.15;45.55
74230;BME280;62589;12.568;99.958;2022-09-03T05:06:17;100560.84;;;38.09;45.49
74230;BME280;62589;12.568;99.958;2022-09-03T05:08:48;100555.66;;;38.08;45.46
74230;BME280;62589;12.568;99.958;2022-09-03T05:11:14;100546.53;;;38.04;45.53
74230;BME280;62589;12.568;99.958;2022-09-03T05:13:41;100545.78;;;38.03;46.47
74230;BME280;62589;12.568;99.958;2022-09-03T05:16:10;100532.19;;;38.02;45.84
74230;BME280;62589;12.568;99.958;2022-09-03T05:18:38;100536.28;;;37.97;45.18
74230;BME280;62589;12.568;99.958;2022-09-03T05:21:09;100537.91;;;37.95;45.63
74230;BME280;62589;12.568;99.958;2022-09-03T05:23:38;100532.31;;;37.95;46.08
74230;BME280;62589;12.568;99.958;2022-09-03T05:26:07;100524.34;;;37.93;46.35
74230;BME280;62589;12.568;99.958;2022-09-03T05:28:36;100521.16;;;37.91;45.63
74230;BME280;62589;12.568;99.958;2022-09-03T05:31:14;100532.00;;;37.89;45.91
74230;BME280;62589;12.568;99.958;2022-09-03T05:33:44;100518.84;;;37.86;45.34
74230;BME280;62589;12.568;99.958;2022-09-03T05:36:14;100520.06;;;37.85;45.66
74230;BME280;62589;12.568;99.958;2022-09-03T05:38:41;100510.88;;;37.84;45.70
74230;BME280;62589;12.568;99.958;2022-09-03T05:41:10;100510.09;;;37.84;45.28
74230;BME280;62589;12.568;99.958;2022-09-03T05:43:37;100497.75;;;37.81;45.21
74230;BME280;62589;12.568;99.958;2022-09-03T05:46:13;100503.00;;;37.79;45.89
74230;BME280;62589;12.568;99.958;2022-09-03T05:48:43;100487.41;;;37.78;46.29
74230;BME280;62589;12.568;99.958;2022-09-03T05:51:17;100487.88;;;37.73;46.29
74230;BME280;62589;12.568;99.958;2022-09-03T05:53:45;100473.50;;;37.71;46.05
74230;BME280;62589;12.568;99.958;2022-09-03T05:56:16;100472.31;;;37.72;46.76
74230;BME280;62589;12.568;99.958;2022-09-03T05:58:52;100469.84;;;37.74;47.28
74230;BME280;62589;12.568;99.958;2022-09-03T06:01:21;100459.09;;;37.73;46.25
74230;BME280;62589;12.568;99.958;2022-09-03T06:03:56;100451.19;;;37.64;46.76
74230;BME280;62589;12.568;99.958;2022-09-03T06:06:23;100448.31;;;37.71;47.65
74230;BME280;62589;12.568;99.958;2022-09-03T06:08:51;100435.16;;;37.68;47.34
74230;BME280;62589;12.568;99.958;2022-09-03T06:11:18;100433.56;;;37.67;47.46
74230;BME280;62589;12.568;99.958;2022-09-03T06:13:44;100431.59;;;37.64;47.47
74230;BME280;62589;12.568;99.958;2022-09-03T06:16:11;100430.41;;;37.65;46.85
74230;BME280;62589;12.568;99.958;2022-09-03T06:18:37;100430.41;;;37.65;47.68
74230;BME280;62589;12.568;99.958;2022-09-03T06:21:05;100412.81;;;37.65;47.53
74230;BME280;62589;12.568;99.958;2022-09-03T06:23:33;100411.19;;;37.64;47.42
74230;BME280;62589;12.568;99.958;2022-09-03T06:26:11;100407.59;;;37.63;47.48
74230;BME280;62589;12.568;99.958;2022-09-03T06:28:39;100397.16;;;37.67;48.21
74230;BME280;62589;12.568;99.958;2022-09-03T06:31:12;100403.19;;;37.66;48.01
74230;BME280;62589;12.568;99.958;2022-09-03T06:33:39;100399.28;;;37.60;47.82
74230;BME280;62589;12.568;99.958;2022-09-03T06:36:17;100393.59;;;37.63;47.94
74230;BME280;62589;12.568;99.958;2022-09-03T06:38:45;100383.97;;;37.64;47.99
74230;BME280;62589;12.568;99.958;2022-09-03T06:41:15;100381.56;;;37.66;48.68
74230;BME280;62589;12.568;99.958;2022-09-03T06:44:03;100378.69;;;37.70;48.55
74230;BME280;62589;12.568;99.958;2022-09-03T06:46:32;100378.25;;;37.71;48.83
74230;BME280;62589;12.568;99.958;2022-09-03T06:48:59;100369.44;;;37.73;48.68
74230;BME280;62589;12.568;99.958;2022-09-03T06:51:28;100365.84;;;37.72;48.00
74230;BME280;62589;12.568;99.958;2022-09-03T06:54:06;100364.69;;;37.70;47.92
74230;BME280;62589;12.568;99.958;2022-09-03T06:56:35;100354.28;;;37.70;47.25
74230;BME280;62589;12.568;99.958;2022-09-03T06:59:07;100343.06;;;37.70;47.70
74230;BME280;62589;12.568;99.958;2022-09-03T07:01:35;100351.41;;;37.74;48.18
74230;BME280;62589;12.568;99.958;2022-09-03T07:04:06;100365.03;;;37.72;48.16
74230;BME280;62589;12.568;99.958;2022-09-03T07:06:36;100378.25;;;37.71;48.28
74230;BME280;62589;12.568;99.958;2022-09-03T07:09:05;100383.50;;;37.69;47.66
74230;BME280;62589;12.568;99.958;2022-09-03T07:11:31;100382.28;;;37.70;48.17
74230;BME280;62589;12.568;99.958;2022-09-03T07:14:02;100371.09;;;37.70;48.55
74230;BME280;62589;12.568;99.958;2022-09-03T07:16:32;100367.50;;;37.70;48.89
74230;BME280;62589;12.568;99.958;2022-09-03T07:18:59;100351.91;;;37.69;48.81
74230;BME280;62589;12.568;99.958;2022-09-03T07:21:30;100341.84;;;37.71;48.61
74230;BME280;62589;12.568;99.958;2022-09-03T07:23:59;100347.09;;;37.69;49.25
74230;BME280;62589;12.568;99.958;2022-09-03T07:26:29;100341.13;;;37.67;49.48
74230;BME280;62589;12.568;99.958;2022-09-03T07:28:57;100347.44;;;37.71;49.72
74230;BME280;62589;12.568;99.958;2022-09-03T07:31:33;100351.91;;;37.69;49.66
74230;BME280;62589;12.568;99.958;2022-09-03T07:34:02;100349.66;;;37.60;49.51
74230;BME280;62589;12.568;99.958;2022-09-03T07:36:35;100356.13;;;37.57;49.14
74230;BME280;62589;12.568;99.958;2022-09-03T07:39:04;100363.97;;;37.66;49.70
74230;BME280;62589;12.568;99.958;2022-09-03T07:41:31;100362.78;;;37.63;50.16
74230;BME280;62589;12.568;99.958;2022-09-03T07:43:58;100355.13;;;37.67;50.29
74230;BME280;62589;12.568;99.958;2022-09-03T07:46:32;100348.75;;;37.67;49.90
74230;BME280;62589;12.568;99.958;2022-09-03T07:49:00;100353.56;;;37.66;50.19
74230;BME280;62589;12.568;99.958;2022-09-03T07:51:29;100347.09;;;37.69;50.25
74230;BME280;62589;12.568;99.958;2022-09-03T07:53:59;100342.78;;;37.65;49.32
74230;BME280;62589;12.568;99.958;2022-09-03T07:56:27;100340.69;;;37.69;49.23
74230;BME280;62589;12.568;99.958;2022-09-03T07:58:58;100344.28;;;37.69;48.89
74230;BME280;62589;12.568;99.958;2022-09-03T08:01:26;100349.88;;;37.69;49.15
74230;BME280;62589;12.568;99.958;2022-09-03T08:03:58;100352.19;;;37.74;49.65
74230;BME280;62589;12.568;99.958;2022-09-03T08:06:27;100346.16;;;37.76;50.34
74230;BME280;62589;12.568;99.958;2022-09-03T08:08:59;100342.94;;;37.77;50.17
74230;BME280;62589;12.568;99.958;2022-09-03T08:11:27;100334.88;;;37.79;49.51
74230;BME280;62589;12.568;99.958;2022-09-03T08:14:00;100322.03;;;37.82;48.45
74230;BME280;62589;12.568;99.958;2022-09-03T08:16:29;100306.50;;;37.77;46.26
74230;BME280;62589;12.568;99.958;2022-09-03T08:18:56;100307.72;;;37.76;45.70
74230;BME280;62589;12.568;99.958;2022-09-03T08:21:23;100302.91;;;37.77;45.84
74230;BME280;62589;12.568;99.958;2022-09-03T08:23:52;100295.72;;;37.76;45.01
74230;BME280;62589;12.568;99.958;2022-09-03T08:26:20;100297.38;;;37.73;44.95
74230;BME280;62589;12.568;99.958;2022-09-03T08:28:48;100309.38;;;37.74;44.22
74230;BME280;62589;12.568;99.958;2022-09-03T08:31:20;100311.81;;;37.72;43.52
74230;BME280;62589;12.568;99.958;2022-09-03T08:33:50;100316.28;;;37.69;44.05
74230;BME280;62589;12.568;99.958;2022-09-03T08:36:25;100317.06;;;37.70;44.35
74230;BME280;62589;12.568;99.958;2022-09-03T08:38:53;100316.63;;;37.71;44.51
74230;BME280;62589;12.568;99.958;2022-09-03T08:44:30;100317.78;;;37.74;44.49
74230;BME280;62589;12.568;99.958;2022-09-03T08:47:16;100322.16;;;37.75;44.07
74230;BME280;62589;12.568;99.958;2022-09-03T08:53:02;100330.22;;;37.73;43.63
74230;BME280;62589;12.568;99.958;2022-09-03T08:55:49;100322.25;;;37.71;43.69
74230;BME280;62589;12.568;99.958;2022-09-03T08:58:26;100323.03;;;37.72;43.92
74230;BME280;62589;12.568;99.958;2022-09-03T09:01:12;100326.25;;;37.70;43.11
74230;BME280;62589;12.568;99.958;2022-09-03T09:09:42;100342.38;;;37.63;43.01
74230;BME280;62589;12.568;99.958;2022-09-03T09:12:38;100336.34;;;37.64;43.68
74230;BME280;62589;12.568;99.958;2022-09-03T09:15:27;100323.16;;;37.65;44.05
74230;BME280;62589;12.568;99.958;2022-09-03T09:18:16;100312.38;;;37.63;44.45
74230;BME280;62589;12.568;99.958;2022-09-03T09:23:48;100303.63;;;37.61;43.98
74230;BME280;62589;12.568;99.958;2022-09-03T09:26:18;100298.47;;;37.60;44.47
74230;BME280;62589;12.568;99.958;2022-09-03T09:28:54;100288.91;;;37.57;43.90
74230;BME280;62589;12.568;99.958;2022-09-03T09:31:22;100289.69;;;37.58;44.20
74230;BME280;62589;12.568;99.958;2022-09-03T09:33:49;100296.53;;;37.57;44.79
74230;BME280;62589;12.568;99.958;2022-09-03T09:36:17;100315.34;;;37.56;45.07
74230;BME280;62589;12.568;99.958;2022-09-03T09:38:45;100320.16;;;37.56;45.31
74230;BME280;62589;12.568;99.958;2022-09-03T09:41:20;100326.19;;;37.54;45.56
74230;BME280;62589;12.568;99.958;2022-09-03T09:44:00;100324.97;;;37.55;46.13
74230;BME280;62589;12.568;99.958;2022-09-03T09:46:37;100323.00;;;37.52;45.80
74230;BME280;62589;12.568;99.958;2022-09-03T09:49:33;100326.59;;;37.53;45.60
74230;BME280;62589;12.568;99.958;2022-09-03T09:52:10;100312.66;;;37.49;45.07
74230;BME280;62589;12.568;99.958;2022-09-03T09:54:39;100307.56;;;37.44;44.73
74230;BME280;62589;12.568;99.958;2022-09-03T09:57:13;100305.66;;;37.41;44.58
74230;BME280;62589;12.568;99.958;2022-09-03T09:59:43;100301.69;;;37.38;44.24
74230;BME280;62589;12.568;99.958;2022-09-03T10:02:23;100314.63;;;37.32;44.31
74230;BME280;62589;12.568;99.958;2022-09-03T10:05:00;100322.66;;;37.30;44.73
74230;BME280;62589;12.568;99.958;2022-09-03T10:07:37;100321.88;;;37.30;45.54
74230;BME280;62589;12.568;99.958;2022-09-03T10:10:06;100316.69;;;37.28;46.17
74230;BME280;62589;12.568;99.958;2022-09-03T10:12:59;100310.66;;;37.30;45.90
74230;BME280;62589;12.568;99.958;2022-09-03T10:15:54;100312.69;;;37.29;46.05
74230;BME280;62589;12.568;99.958;2022-09-03T10:24:35;100319.69;;;37.17;45.57
74230;BME280;62589;12.568;99.958;2022-09-03T10:27:07;100309.41;;;37.11;45.93
74230;BME280;62589;12.568;99.958;2022-09-03T10:29:36;100303.38;;;37.12;46.03
74230;BME280;62589;12.568;99.958;2022-09-03T10:32:23;100297.41;;;37.10;46.55
74230;BME280;62589;12.568;99.958;2022-09-03T10:35:09;100290.59;;;37.11;47.11
74230;BME280;62589;12.568;99.958;2022-09-03T10:37:54;100294.69;;;37.07;47.42
74230;BME280;62589;12.568;99.958;2022-09-03T10:46:28;100323.47;;;37.07;47.94
74230;BME280;62589;12.568;99.958;2022-09-03T10:52:25;100331.50;;;37.05;47.72
74230;BME280;62589;12.568;99.958;2022-09-03T10:58:10;100345.91;;;37.04;47.48
74230;BME280;62589;12.568;99.958;2022-09-03T11:00:48;100350.34;;;37.01;47.30
74230;BME280;62589;12.568;99.958;2022-09-03T11:06:16;100370.81;;;36.98;47.13
74230;BME280;62589;12.568;99.958;2022-09-03T11:08:58;100373.63;;;36.98;47.14
74230;BME280;62589;12.568;99.958;2022-09-03T11:11:35;100386.09;;;36.94;46.92
74230;BME280;62589;12.568;99.958;2022-09-03T11:14:07;100396.13;;;36.91;46.97
74230;BME280;62589;12.568;99.958;2022-09-03T11:16:53;100390.16;;;36.89;47.08
74230;BME280;62589;12.568;99.958;2022-09-03T11:19:33;100386.97;;;36.87;46.82
74230;BME280;62589;12.568;99.958;2022-09-03T11:22:03;100396.66;;;36.82;47.22
74230;BME280;62589;12.568;99.958;2022-09-03T11:24:32;100396.28;;;36.80;47.72
74230;BME280;62589;12.568;99.958;2022-09-03T11:30:05;100408.75;;;36.76;47.83
74230;BME280;62589;12.568;99.958;2022-09-03T11:32:53;100422.38;;;36.74;48.09
74230;BME280;62589;12.568;99.958;2022-09-03T11:35:40;100426.78;;;36.71;48.25
74230;BME280;62589;12.568;99.958;2022-09-03T11:38:20;100435.66;;;36.66;47.68
74230;BME280;62589;12.568;99.958;2022-09-03T11:41:10;100431.31;;;36.62;46.98
74230;BME280;62589;12.568;99.958;2022-09-03T11:43:38;100439.75;;;36.58;46.60
74230;BME280;62589;12.568;99.958;2022-09-03T11:46:28;100445.84;;;36.53;46.49
74230;BME280;62589;12.568;99.958;2022-09-03T11:49:09;100447.44;;;36.54;46.51
74230;BME280;62589;12.568;99.958;2022-09-03T11:51:37;100458.66;;;36.51;46.72
74230;BME280;62589;12.568;99.958;2022-09-03T11:54:24;100457.81;;;36.54;46.75
74230;BME280;62589;12.568;99.958;2022-09-03T11:59:40;100457.94;;;36.43;48.03
74230;BME280;62589;12.568;99.958;2022-09-03T12:02:22;100452.38;;;36.43;48.65
74230;BME280;62589;12.568;99.958;2022-09-03T12:08:08;100455.22;;;36.39;49.88
74230;BME280;62589;12.568;99.958;2022-09-03T12:11:05;100449.63;;;36.39;49.31
74230;BME280;62589;12.568;99.958;2022-09-03T12:14:01;100463.25;;;36.37;49.43
74230;BME280;62589;12.568;99.958;2022-09-03T12:16:59;100466.50;;;36.32;50.03
74230;BME280;62589;12.568;99.958;2022-09-03T12:19:51;100471.69;;;36.34;49.77
74230;BME280;62589;12.568;99.958;2022-09-03T12:22:21;100467.72;;;36.31;48.81
74230;BME280;62589;12.568;99.958;2022-09-03T12:24:48;100464.53;;;36.29;48.83
74230;BME280;62589;12.568;99.958;2022-09-03T12:27:21;100473.34;;;36.28;49.15
74230;BME280;62589;12.568;99.958;2022-09-03T12:30:12;100471.72;;;36.30;48.55
74230;BME280;62589;12.568;99.958;2022-09-03T12:32:39;100476.94;;;36.28;48.52
74230;BME280;62589;12.568;99.958;2022-09-03T12:35:14;100474.97;;;36.25;49.10
74230;BME280;62589;12.568;99.958;2022-09-03T12:37:44;100476.97;;;36.25;48.80
74230;BME280;62589;12.568;99.958;2022-09-03T12:40:27;100475.34;;;36.27;48.87
74230;BME280;62589;12.568;99.958;2022-09-03T12:42:54;100473.75;;;36.26;49.10
74230;BME280;62589;12.568;99.958;2022-09-03T12:45:22;100475.78;;;36.22;49.16
74230;BME280;62589;12.568;99.958;2022-09-03T12:47:49;100474.97;;;36.22;49.37
74230;BME280;62589;12.568;99.958;2022-09-03T12:50:23;100478.19;;;36.20;49.54
74230;BME280;62589;12.568;99.958;2022-09-03T12:52:56;100479.41;;;36.19;49.17
74230;BME280;62589;12.568;99.958;2022-09-03T12:58:17;100495.78;;;36.17;49.20
74230;BME280;62589;12.568;99.958;2022-09-03T13:01:07;100500.56;;;36.20;49.07
74230;BME280;62589;12.568;99.958;2022-09-03T13:03:47;100496.25;;;36.15;49.03
74230;BME280;62589;12.568;99.958;2022-09-03T13:06:18;100501.88;;;36.12;49.12
74230;BME280;62589;12.568;99.958;2022-09-03T13:08:48;100504.66;;;36.12;48.96
74230;BME280;62589;12.568;99.958;2022-09-03T13:11:18;100511.50;;;36.07;48.64
74230;BME280;62589;12.568;99.958;2022-09-03T13:14:01;100517.09;;;36.07;48.97
74230;BME280;62589;12.568;99.958;2022-09-03T13:19:57;100523.47;;;36.08;48.94
74230;BME280;62589;12.568;99.958;2022-09-03T13:22:55;100528.69;;;36.06;49.63
74230;BME280;62589;12.568;99.958;2022-09-03T13:25:42;100536.34;;;35.98;49.79
74230;BME280;62589;12.568;99.958;2022-09-03T13:28:33;100541.13;;;35.98;49.97
74230;BME280;62589;12.568;99.958;2022-09-03T13:34:34;100542.41;;;35.93;50.82
74230;BME280;62589;12.568;99.958;2022-09-03T13:37:25;100540.03;;;35.92;51.05
74230;BME280;62589;12.568;99.958;2022-09-03T13:40:10;100549.22;;;35.89;51.14
74230;BME280;62589;12.568;99.958;2022-09-03T13:42:55;100558.81;;;35.88;51.76
74230;BME280;62589;12.568;99.958;2022-09-03T13:45:41;100548.88;;;35.83;52.08
74230;BME280;62589;12.568;99.958;2022-09-03T13:48:35;100546.50;;;35.81;52.00
74230;BME280;62589;12.568;99.958;2022-09-03T13:51:28;100541.72;;;35.78;51.97
74230;BME280;62589;12.568;99.958;2022-09-03T13:54:14;100557.69;;;35.78;51.85
74230;BME280;62589;12.568;99.958;2022-09-03T13:56:52;100556.13;;;35.73;52.20
74230;BME280;62589;12.568;99.958;2022-09-03T13:59:44;100568.06;;;35.77;51.89
74230;BME280;62589;12.568;99.958;2022-09-03T14:02:27;100565.72;;;35.72;51.67
74230;BME280;62589;12.568;99.958;2022-09-03T14:05:08;100567.34;;;35.70;52.17
74230;BME280;62589;12.568;99.958;2022-09-03T14:10:50;100572.13;;;35.69;52.67
74230;BME280;62589;12.568;99.958;2022-09-03T14:16:36;100574.97;;;35.62;51.88
74230;BME280;62589;12.568;99.958;2022-09-03T14:19:05;100581.28;;;35.73;51.61
74230;BME280;62589;12.568;99.958;2022-09-03T14:21:49;100576.19;;;35.61;51.79
74230;BME280;62589;12.568;99.958;2022-09-03T14:27:24;100579.41;;;35.56;53.13
74230;BME280;62589;12.568;99.958;2022-09-03T14:29:59;100580.66;;;35.52;53.29
74230;BME280;62589;12.568;99.958;2022-09-03T14:32:41;100589.03;;;35.52;53.07
74230;BME280;62589;12.568;99.958;2022-09-03T14:44:34;100597.00;;;35.53;53.15
74230;BME280;62589;12.568;99.958;2022-09-03T14:50:18;100603.44;;;35.46;53.13
74230;BME280;62589;12.568;99.958;2022-09-03T14:53:18;100609.81;;;35.47;53.34
74230;BME280;62589;12.568;99.958;2022-09-03T14:59:01;100616.22;;;35.44;53.47
74230;BME280;62589;12.568;99.958;2022-09-03T15:01:34;100616.63;;;35.39;53.01
74230;BME280;62589;12.568;99.958;2022-09-03T15:04:25;100629.78;;;35.42;52.62
74230;BME280;62589;12.568;99.958;2022-09-03T15:13:15;100622.19;;;35.42;52.58
74230;BME280;62589;12.568;99.958;2022-09-03T15:18:31;100622.94;;;35.54;51.97